Falcon Express — C6XB9 — position and weather

sailwx.info

Track history (hours):
 
Tides and Currents Weather Stations Pressure Air Temp Water Temp Dewpoint Dewpoint Depression Visibility Wind Speed Wind Dir Waves Ship Positions

Falcon Express

Last reported at 2018-Feb-17 08:27 UTC. Time now 2018-Feb-24 08:29 UTC.
Position N 15°48' E 069°36'.

Length 244 m; draft 8.4 m.

Type: Tanker. MMSI: 311005200.

Date/timePositionNaut miles runAvg speedWind from/ knotsBaromVisibWave heightAir tempDewpointWater temp
2018-Feb-17 08:27N 15°48' E 069°36'914.7
2018-Feb-17 07:51N 15°41' E 069°42'3014.5
2018-Feb-17 05:47N 15°16' E 069°58'414.4
2018-Feb-17 05:30N 15°12' E 070°00'714.2
2018-Feb-17 04:59N 15°06' E 070°05'914.3
2018-Feb-17 04:20N 14°58' E 070°10'1914.2
2018-Feb-17 02:58N 14°42' E 070°20'714.4
2018-Feb-17 02:29N 14°36' E 070°24'714.2
2018-Feb-17 02:00N 14°30' E 070°28'2414.0
2018-Feb-17 00:19N 14°10' E 070°41'414.0
2018-Feb-17 00:00N 14°06' E 070°43'714.2
2018-Feb-16 23:30N 14°01' E 070°47'  
2018-Feb-10 07:07N 01°23' E 103°15'713.9
2018-Feb-10 06:37N 01°19' E 103°20'214.0
2018-Feb-10 06:30N 01°18' E 103°21'713.6
2018-Feb-10 05:59N 01°14' E 103°27'613.3
2018-Feb-10 05:30N 01°12' E 103°33'610.8
2018-Feb-10 04:59N 01°11' E 103°39'3 5.0
2018-Feb-10 04:29N 01°10' E 103°41'4 8.2
2018-Feb-10 04:00N 01°09' E 103°45'611.0
2018-Feb-10 03:30N 01°11' E 103°50'611.2
2018-Feb-10 03:00N 01°14' E 103°55'611.2
2018-Feb-10 02:30N 01°15' E 104°00'611.5
2018-Feb-10 02:00N 01°16' E 104°06'  
Track history (hours):
 
Tides and Currents Weather Stations Pressure Air Temp Water Temp Dewpoint Dewpoint Depression Visibility Wind Speed Wind Dir Waves Ship Positions

Falcon Express

Last reported at 2018-Feb-17 08:27 UTC. Time now 2018-Feb-24 08:29 UTC.
Position N 15°48' E 069°36'.

Length 244 m; draft 8.4 m.

Type: Tanker. MMSI: 311005200.

Date/timePositionNaut miles runAvg speedWind from/ knotsBaromVisibWave heightAir tempDewpointWater temp
2018-Feb-17 08:27N 15°48' E 069°36'914.7
2018-Feb-17 07:51N 15°41' E 069°42'3014.5
2018-Feb-17 05:47N 15°16' E 069°58'414.4
2018-Feb-17 05:30N 15°12' E 070°00'714.2
2018-Feb-17 04:59N 15°06' E 070°05'914.3
2018-Feb-17 04:20N 14°58' E 070°10'1914.2
2018-Feb-17 02:58N 14°42' E 070°20'714.4
2018-Feb-17 02:29N 14°36' E 070°24'714.2
2018-Feb-17 02:00N 14°30' E 070°28'2414.0
2018-Feb-17 00:19N 14°10' E 070°41'414.0
2018-Feb-17 00:00N 14°06' E 070°43'714.2
2018-Feb-16 23:30N 14°01' E 070°47'  
2018-Feb-10 07:07N 01°23' E 103°15'713.9
2018-Feb-10 06:37N 01°19' E 103°20'214.0
2018-Feb-10 06:30N 01°18' E 103°21'713.6
2018-Feb-10 05:59N 01°14' E 103°27'613.3
2018-Feb-10 05:30N 01°12' E 103°33'610.8
2018-Feb-10 04:59N 01°11' E 103°39'3 5.0
2018-Feb-10 04:29N 01°10' E 103°41'4 8.2
2018-Feb-10 04:00N 01°09' E 103°45'611.0
2018-Feb-10 03:30N 01°11' E 103°50'611.2
2018-Feb-10 03:00N 01°14' E 103°55'611.2
2018-Feb-10 02:30N 01°15' E 104°00'611.5
2018-Feb-10 02:00N 01°16' E 104°06'  

Dump ship's entire track history